createdAt,value
2022-08-11T00:02:05.559Z,99.90
2022-08-11T00:07:20.076Z,99.90
2022-08-11T00:12:23.785Z,99.90
2022-08-11T00:17:29.655Z,99.90
2022-08-11T00:22:38.178Z,99.90
2022-08-11T00:27:42.505Z,99.90
2022-08-11T00:32:54.151Z,99.90
2022-08-11T00:38:00.334Z,99.90
2022-08-11T00:43:20.878Z,99.90
2022-08-11T00:48:29.412Z,99.90
2022-08-11T00:53:49.107Z,99.90
2022-08-11T00:59:35.487Z,99.90
2022-08-11T01:05:24.870Z,99.90
2022-08-11T01:11:02.744Z,99.90
2022-08-11T01:16:24.803Z,99.90
2022-08-11T01:22:03.532Z,99.90
2022-08-11T01:27:35.807Z,99.90
2022-08-11T01:33:20.153Z,99.90
2022-08-11T01:38:55.978Z,99.90
2022-08-11T01:44:31.933Z,99.90
2022-08-11T01:50:08.133Z,99.90
2022-08-11T01:55:15.727Z,99.90
2022-08-11T02:00:20.859Z,99.90
2022-08-11T02:05:35.907Z,99.90
2022-08-11T02:11:05.473Z,99.90
2022-08-11T02:16:17.500Z,99.90
2022-08-11T02:21:46.600Z,99.90
2022-08-11T02:27:02.232Z,99.90
2022-08-11T02:32:31.992Z,99.90
2022-08-11T02:37:45.208Z,99.90
2022-08-11T02:43:04.550Z,99.90
2022-08-11T02:48:34.257Z,99.90
2022-08-11T02:53:43.972Z,99.90
2022-08-11T02:59:26.995Z,99.90
2022-08-11T03:04:48.194Z,99.90
2022-08-11T03:09:58.632Z,99.90
2022-08-11T03:15:29.502Z,99.90
2022-08-11T03:20:42.423Z,99.90
2022-08-11T03:25:54.624Z,99.90
2022-08-11T03:31:15.533Z,99.90
2022-08-11T03:37:15.551Z,99.90
2022-08-11T03:42:10.397Z,99.90
2022-08-11T03:47:27.241Z,99.90
2022-08-11T03:52:44.216Z,99.90
2022-08-11T03:58:24.102Z,99.90
2022-08-11T04:04:07.468Z,99.90
2022-08-11T04:09:59.124Z,99.90
2022-08-11T04:15:32.404Z,99.90
2022-08-11T04:21:03.194Z,99.90
2022-08-11T04:26:48.265Z,99.90
2022-08-11T04:32:04.271Z,99.90
2022-08-11T04:37:34.642Z,99.90
2022-08-11T04:43:20.711Z,99.90
2022-08-11T04:49:07.375Z,99.90
2022-08-11T04:54:44.485Z,99.90
2022-08-11T05:00:22.819Z,99.90
2022-08-11T05:05:56.332Z,99.90
2022-08-11T05:11:28.533Z,99.90
2022-08-11T05:17:00.344Z,99.90
2022-08-11T05:22:24.963Z,99.90
2022-08-11T05:27:52.772Z,99.90
2022-08-11T05:33:20.996Z,99.90
2022-08-11T05:38:45.477Z,94.90
2022-08-11T05:44:21.810Z,88.80
2022-08-11T05:49:48.891Z,80.70
2022-08-11T05:55:10.822Z,75.90
2022-08-11T06:00:15.894Z,73.10
2022-08-11T06:05:19.569Z,66.00
2022-08-11T06:10:28.933Z,62.90
2022-08-11T06:15:34.821Z,62.30
2022-08-11T06:20:47.538Z,59.30
2022-08-11T06:25:52.748Z,59.50
2022-08-11T06:30:58.102Z,59.10
2022-08-11T06:36:07.571Z,58.40
2022-08-11T06:41:32.756Z,57.10
2022-08-11T06:46:40.485Z,57.40
2022-08-11T06:51:48.505Z,53.50
2022-08-11T06:57:29.275Z,53.40
2022-08-11T07:02:52.366Z,53.00
2022-08-11T07:08:46.636Z,53.00
2022-08-11T07:14:12.934Z,51.10
2022-08-11T07:19:40.025Z,54.30
2022-08-11T07:25:10.737Z,50.50
2022-08-11T07:30:14.196Z,48.90
2022-08-11T07:35:23.482Z,46.60
2022-08-11T07:40:27.175Z,46.40
2022-08-11T07:45:49.643Z,45.90
2022-08-11T07:51:13.551Z,46.70
2022-08-11T07:56:21.857Z,47.50
2022-08-11T08:02:01.625Z,47.30
2022-08-11T08:07:25.633Z,46.10
2022-08-11T08:12:50.290Z,44.90
2022-08-11T08:18:20.730Z,45.20
2022-08-11T08:23:35.779Z,45.20
2022-08-11T08:28:39.952Z,45.80
2022-08-11T08:33:43.736Z,43.00
2022-08-11T08:38:50.536Z,42.60
2022-08-11T08:44:05.934Z,44.40
2022-08-11T08:49:26.910Z,49.30
2022-08-11T08:54:37.160Z,43.60
2022-08-11T08:59:48.381Z,47.10
2022-08-11T09:04:53.098Z,44.80
2022-08-11T09:09:58.935Z,43.50
2022-08-11T09:15:05.474Z,40.80
2022-08-11T09:20:12.344Z,42.60
2022-08-11T09:25:36.281Z,40.10
2022-08-11T09:30:42.539Z,38.90
2022-08-11T09:35:47.625Z,43.50
2022-08-11T09:40:57.032Z,40.50
2022-08-11T09:46:01.087Z,40.30
2022-08-11T09:51:05.232Z,40.00
2022-08-11T09:56:30.528Z,39.80
2022-08-11T10:01:42.345Z,40.70
2022-08-11T10:07:04.705Z,40.20
2022-08-11T10:12:12.890Z,41.40
2022-08-11T10:17:18.737Z,42.00
2022-08-11T10:22:40.252Z,39.20
2022-08-11T10:28:18.712Z,38.20
2022-08-11T10:33:37.079Z,39.70
2022-08-11T10:38:41.743Z,40.90
2022-08-11T10:44:02.498Z,37.60
2022-08-11T10:49:07.706Z,41.30
2022-08-11T10:54:29.996Z,39.80
2022-08-11T10:59:35.249Z,40.30
2022-08-11T11:04:52.427Z,37.50
2022-08-11T11:09:59.972Z,41.70
2022-08-11T11:15:26.499Z,41.70
2022-08-11T11:20:36.678Z,41.10
2022-08-11T11:26:06.995Z,40.80
2022-08-11T11:31:24.933Z,38.50
2022-08-11T11:36:39.521Z,37.70
2022-08-11T11:41:43.324Z,38.50
2022-08-11T11:46:48.373Z,38.30
2022-08-11T11:51:52.854Z,40.30
2022-08-11T11:56:58.350Z,36.60
2022-08-11T12:02:11.709Z,40.10
2022-08-11T12:07:35.448Z,38.60
2022-08-11T12:12:57.485Z,38.40
2022-08-11T12:18:02.638Z,39.00
2022-08-11T12:23:24.768Z,38.00
2022-08-11T12:28:29.611Z,36.50
2022-08-11T12:33:37.403Z,37.40
2022-08-11T12:38:51.270Z,37.30
2022-08-11T12:44:14.706Z,37.80
2022-08-11T12:49:44.749Z,36.30
2022-08-11T12:54:59.909Z,36.30
2022-08-11T13:00:24.392Z,36.50
2022-08-11T13:05:32.212Z,38.20
2022-08-11T13:10:57.961Z,38.80
2022-08-11T13:16:01.279Z,38.00
2022-08-11T13:21:06.213Z,38.00
2022-08-11T13:26:10.427Z,38.10
2022-08-11T13:31:15.180Z,39.60
2022-08-11T13:36:21.375Z,39.10
2022-08-11T13:41:39.288Z,43.10
2022-08-11T13:46:44.363Z,39.70
2022-08-11T13:51:50.160Z,39.30
2022-08-11T13:56:56.170Z,39.20
2022-08-11T14:02:22.923Z,37.90
2022-08-11T14:07:38.155Z,38.20
2022-08-11T14:13:05.734Z,39.90
2022-08-11T14:18:13.760Z,40.60
2022-08-11T14:23:19.481Z,40.30
2022-08-11T14:28:33.894Z,39.40
2022-08-11T14:34:00.287Z,40.80
2022-08-11T14:39:12.734Z,38.50
2022-08-11T14:44:35.389Z,39.00
2022-08-11T14:49:49.224Z,38.50
2022-08-11T14:55:24.263Z,37.80
2022-08-11T15:00:28.353Z,36.90
2022-08-11T15:05:32.200Z,38.00
2022-08-11T15:10:37.308Z,37.60
2022-08-11T15:16:03.796Z,38.20
2022-08-11T15:21:27.858Z,36.40
2022-08-11T15:26:58.127Z,36.50
2022-08-11T15:32:19.748Z,36.00
2022-08-11T15:37:31.573Z,36.40
2022-08-11T15:43:04.219Z,35.40
2022-08-11T15:48:10.598Z,35.40
2022-08-11T15:53:20.087Z,36.90
2022-08-11T15:59:10.709Z,35.70
2022-08-11T16:04:16.839Z,36.60
2022-08-11T16:09:24.918Z,38.20
2022-08-11T16:14:52.496Z,38.40
2022-08-11T16:19:58.887Z,38.90
2022-08-11T16:27:04.750Z,38.70
2022-08-11T16:30:32.127Z,37.50
2022-08-11T16:35:58.206Z,37.20
2022-08-11T16:41:09.593Z,38.90
2022-08-11T16:46:38.284Z,40.20
2022-08-11T16:51:41.440Z,39.40
2022-08-11T16:56:48.945Z,39.30
2022-08-11T17:01:55.864Z,38.90
2022-08-11T17:07:40.129Z,39.00
2022-08-11T17:13:03.125Z,39.20
2022-08-11T17:18:09.836Z,39.30
2022-08-11T17:23:32.204Z,40.30
2022-08-11T17:28:37.662Z,40.00
2022-08-11T17:34:02.589Z,40.00
2022-08-11T17:39:05.862Z,40.50
2022-08-11T17:44:27.905Z,41.80
2022-08-11T17:49:37.489Z,41.30
2022-08-11T17:55:00.495Z,41.70
2022-08-11T18:00:05.634Z,43.00
2022-08-11T18:05:19.012Z,44.90
2022-08-11T18:10:41.538Z,44.30
2022-08-11T18:16:04.152Z,49.00
2022-08-11T18:21:28.152Z,49.60
2022-08-11T18:26:50.535Z,54.10
2022-08-11T18:32:21.120Z,56.00
2022-08-11T18:37:49.596Z,57.00
2022-08-11T18:43:13.803Z,54.50
2022-08-11T18:48:41.028Z,59.10
2022-08-11T18:54:10.756Z,62.30
2022-08-11T18:59:35.769Z,64.90
2022-08-11T19:04:58.993Z,66.90
2022-08-11T19:10:24.215Z,67.00
2022-08-11T19:15:47.465Z,67.60
2022-08-11T19:21:10.750Z,69.90
2022-08-11T19:26:35.291Z,71.10
2022-08-11T19:31:58.538Z,72.40
2022-08-11T19:37:25.091Z,75.10
2022-08-11T19:42:48.976Z,75.20
2022-08-11T19:53:54.931Z,78.30
2022-08-11T19:59:18.764Z,81.00
2022-08-11T20:04:40.723Z,78.70
2022-08-11T20:10:06.556Z,77.60
2022-08-11T20:15:30.334Z,74.70
2022-08-11T20:20:52.950Z,74.80
2022-08-11T20:26:32.556Z,73.10
2022-08-11T20:31:56.973Z,68.80
2022-08-11T20:37:20.054Z,70.50
2022-08-11T20:42:43.814Z,72.10
2022-08-11T20:48:08.063Z,71.10
2022-08-11T20:53:31.231Z,66.60
2022-08-11T20:59:16.710Z,65.00
2022-08-11T21:04:54.355Z,65.10
2022-08-11T21:10:23.451Z,64.50
2022-08-11T21:16:01.807Z,64.90
2022-08-11T21:21:29.913Z,65.50
2022-08-11T21:27:09.307Z,67.50
2022-08-11T21:32:39.186Z,68.70
2022-08-11T21:38:03.194Z,68.90
2022-08-11T21:43:30.769Z,69.00
2022-08-11T21:48:53.596Z,69.70
2022-08-11T21:54:18.943Z,70.90
2022-08-11T21:59:56.723Z,71.50
2022-08-11T22:05:19.203Z,72.20
2022-08-11T22:10:43.159Z,73.50
2022-08-11T22:16:05.778Z,74.70
2022-08-11T22:22:02.933Z,76.00
2022-08-11T22:27:12.238Z,78.50
2022-08-11T22:32:36.220Z,81.30
2022-08-11T22:37:59.541Z,88.30
2022-08-11T22:43:22.550Z,92.70
2022-08-11T22:48:47.353Z,91.40
2022-08-11T22:54:09.876Z,94.80
2022-08-11T22:59:34.291Z,96.50
2022-08-11T23:04:57.095Z,99.90
2022-08-11T23:10:19.396Z,99.90
2022-08-11T23:15:43.248Z,99.90
2022-08-11T23:21:05.707Z,99.90
2022-08-11T23:26:29.387Z,99.90
2022-08-11T23:31:54.838Z,99.90
2022-08-11T23:37:16.469Z,99.90
2022-08-11T23:42:38.178Z,99.90
2022-08-11T23:48:02.661Z,99.90
2022-08-11T23:53:25.551Z,99.90
2022-08-11T23:58:47.698Z,99.90
